Time;durP1;ratioP1;P1;durP2;ratioP2;P2;SDS_P1;SDS_P2;PMS_P1;PMS_P2;Temp;Humidity;BMP_temperature;BMP_pressure;BME280_temperature;BME280_humidity;BME280_pressure;Samples;Min_cycle;Max_cycle;Signal;HPM_P1;HPM_P2
2023/04/24 00:00:45;;;;;;;13.50;7.00;;;;;;;12.95;67.00;99732.44;5030415;28;20082;-68
2023/04/24 00:03:10;;;;;;;11.57;8.38;;;;;;;12.93;67.45;99731.78;5030927;28;20041;-65
2023/04/24 00:05:36;;;;;;;14.52;7.35;;;;;;;12.90;67.60;99724.16;5029576;28;20037;-64
2023/04/24 00:08:01;;;;;;;10.40;6.78;;;;;;;12.89;67.69;99726.00;5031595;28;20045;-68
2023/04/24 00:10:27;;;;;;;11.48;7.72;;;;;;;12.92;67.90;99723.00;5030074;28;20057;-64
2023/04/24 00:12:53;;;;;;;12.05;7.70;;;;;;;13.00;67.58;99712.28;5031385;28;20041;-64
2023/04/24 00:15:18;;;;;;;10.13;7.57;;;;;;;13.08;67.42;99714.88;5030806;28;20037;-68
2023/04/24 00:17:43;;;;;;;11.02;7.10;;;;;;;12.86;67.98;99717.56;5030540;28;20426;-65
2023/04/24 00:20:10;;;;;;;11.00;7.90;;;;;;;12.60;69.74;99724.03;5031143;28;20038;-64
2023/04/24 00:22:35;;;;;;;11.88;7.35;;;;;;;12.63;69.61;99728.16;5032970;28;20052;-68
2023/04/24 00:25:01;;;;;;;16.45;7.88;;;;;;;12.46;70.67;99733.56;5028931;28;20352;-68
2023/04/24 00:27:26;;;;;;;13.43;7.82;;;;;;;12.56;69.92;99728.03;5031699;28;20347;-65
2023/04/24 00:29:52;;;;;;;11.65;8.18;;;;;;;12.47;70.19;99718.44;5031101;28;20033;-65
2023/04/24 00:32:17;;;;;;;10.88;7.40;;;;;;;12.58;69.53;99717.25;5029954;28;20048;-68
2023/04/24 00:34:43;;;;;;;11.43;7.72;;;;;;;12.71;69.12;99701.56;5030870;28;20042;-68
2023/04/24 00:37:08;;;;;;;11.13;7.32;;;;;;;12.67;69.57;99714.38;5030998;28;20075;-67
2023/04/24 00:39:34;;;;;;;12.45;7.45;;;;;;;12.69;68.89;99715.00;5032080;28;20212;-64
2023/04/24 00:42:01;;;;;;;9.90;7.30;;;;;;;12.69;69.08;99698.25;5030417;28;20031;-67
2023/04/24 00:44:26;;;;;;;10.88;7.47;;;;;;;12.72;68.82;99709.34;5031825;28;20067;-64
2023/04/24 00:46:54;;;;;;;9.57;7.20;;;;;;;12.78;68.40;99705.16;5030991;28;20030;-68
2023/04/24 00:49:21;;;;;;;10.80;8.15;;;;;;;12.78;68.79;99705.97;5035058;28;20116;-65
2023/04/24 00:51:46;;;;;;;13.88;7.75;;;;;;;12.76;69.11;99699.19;5030871;28;20049;-65
2023/04/24 00:54:15;;;;;;;9.88;7.25;;;;;;;12.57;69.91;99708.44;5031655;28;20227;-68
2023/04/24 00:56:42;;;;;;;12.80;8.25;;;;;;;12.66;69.95;99715.38;5030059;28;20050;-68
2023/04/24 00:59:08;;;;;;;12.07;8.20;;;;;;;12.66;70.67;99712.72;5030210;28;20381;-65
2023/04/24 01:01:34;;;;;;;13.23;8.63;;;;;;;12.70;70.22;99713.19;5031532;28;20033;-64
2023/04/24 01:04:00;;;;;;;13.63;8.20;;;;;;;12.56;71.13;99705.97;5029784;28;20049;-68
2023/04/24 01:06:28;;;;;;;10.95;7.55;;;;;;;12.32;72.23;99717.53;5031468;28;20132;-68
2023/04/24 01:08:55;;;;;;;11.05;8.05;;;;;;;12.18;74.19;99723.56;5029814;28;20033;-67
2023/04/24 01:11:21;;;;;;;15.73;8.85;;;;;;;12.30;73.94;99716.88;5032010;28;20279;-68
2023/04/24 01:13:48;;;;;;;13.75;8.38;;;;;;;12.44;73.03;99706.34;5028612;28;20426;-66
2023/04/24 01:16:17;;;;;;;12.60;7.65;;;;;;;12.49;72.65;99710.34;5030944;28;20060;-64
2023/04/24 01:18:43;;;;;;;14.80;9.70;;;;;;;12.31;72.84;99710.56;5031472;28;20107;-68
2023/04/24 01:21:08;;;;;;;13.40;7.95;;;;;;;12.38;73.29;99701.72;5028615;28;20128;-68
2023/04/24 01:23:34;;;;;;;11.48;7.65;;;;;;;12.40;72.46;99701.56;5031991;28;20454;-68
2023/04/24 01:26:00;;;;;;;12.18;8.40;;;;;;;12.44;72.28;99700.19;5028739;28;20037;-65
2023/04/24 01:28:26;;;;;;;13.70;7.78;;;;;;;12.37;72.96;99699.25;5031794;28;20052;-68
2023/04/24 01:30:52;;;;;;;11.02;7.28;;;;;;;12.06;74.24;99708.03;5029588;28;20041;-65
2023/04/24 01:33:18;;;;;;;8.93;7.45;;;;;;;11.94;74.61;99706.75;5028020;28;20045;-68
2023/04/24 01:35:43;;;;;;;13.27;8.00;;;;;;;11.97;75.11;99709.06;5029256;28;20034;-65
2023/04/24 01:38:09;;;;;;;10.68;7.32;;;;;;;11.93;75.32;99706.91;5030295;28;20311;-68
2023/04/24 01:40:35;;;;;;;12.18;7.60;;;;;;;12.07;74.24;99706.19;5031183;28;20320;-65
2023/04/24 01:43:00;;;;;;;14.02;9.05;;;;;;;12.00;74.09;99718.50;5029605;28;20096;-68
2023/04/24 01:45:26;;;;;;;14.63;8.10;;;;;;;12.03;74.61;99710.19;5034164;28;20022;-68
2023/04/24 01:47:52;;;;;;;12.32;7.63;;;;;;;12.15;73.96;99704.34;5030876;28;20025;-68
2023/04/24 01:50:18;;;;;;;11.55;8.10;;;;;;;12.28;72.19;99703.78;5034039;28;20064;-67
2023/04/24 01:52:44;;;;;;;12.85;8.35;;;;;;;12.33;72.14;99703.25;5032106;28;21240;-65
2023/04/24 01:55:10;;;;;;;12.55;8.77;;;;;;;12.40;72.72;99712.19;5035563;28;20029;-64
2023/04/24 01:57:36;;;;;;;12.48;9.30;;;;;;;12.47;71.55;99713.13;5034170;28;20083;-67
2023/04/24 02:00:04;;;;;;;14.15;9.63;;;;;;;12.55;71.28;99701.66;5034062;28;20038;-68
2023/04/24 02:02:29;;;;;;;14.00;8.80;;;;;;;12.53;70.68;99708.97;5034803;28;20037;-66
2023/04/24 02:04:56;;;;;;;11.80;8.50;;;;;;;12.33;71.34;99716.53;5033579;28;20060;-65
2023/04/24 02:07:21;;;;;;;11.48;8.20;;;;;;;12.19;72.42;99710.13;5034841;28;20151;-64
2023/04/24 02:09:47;;;;;;;11.57;8.18;;;;;;;12.15;72.57;99714.94;5034369;28;20033;-65
2023/04/24 02:12:13;;;;;;;11.02;8.18;;;;;;;12.05;73.76;99709.03;5033580;28;20443;-64
2023/04/24 02:14:38;;;;;;;10.85;7.50;;;;;;;12.12;72.87;99706.50;5032531;28;20041;-65
2023/04/24 02:17:04;;;;;;;12.07;7.78;;;;;;;12.08;73.01;99707.84;5033628;28;20061;-65
2023/04/24 02:19:30;;;;;;;12.55;7.80;;;;;;;11.97;72.99;99709.06;5033208;28;20252;-68
2023/04/24 02:21:55;;;;;;;10.57;7.72;;;;;;;11.94;73.26;99701.44;5034588;28;20029;-64
2023/04/24 02:24:21;;;;;;;11.23;7.28;;;;;;;12.00;72.91;99702.56;5033635;28;20254;-68
2023/04/24 02:26:46;;;;;;;10.60;8.07;;;;;;;12.03;73.31;99699.59;5033938;28;20029;-68
2023/04/24 02:29:12;;;;;;;10.25;7.10;;;;;;;12.04;72.38;99703.88;5033803;28;20328;-68
2023/04/24 02:31:37;;;;;;;10.13;7.13;;;;;;;11.97;72.35;99693.13;5033202;28;20045;-68
2023/04/24 02:34:03;;;;;;;10.13;7.45;;;;;;;12.04;71.64;99694.09;5035188;28;20331;-65
2023/04/24 02:36:28;;;;;;;11.52;6.55;;;;;;;12.02;70.00;99680.19;5032144;28;20042;-68
2023/04/24 02:38:53;;;;;;;10.95;6.75;;;;;;;11.97;69.78;99687.81;5033445;28;20219;-66
2023/04/24 02:41:19;;;;;;;9.32;7.03;;;;;;;11.98;70.02;99688.66;5032976;28;20025;-68
2023/04/24 02:43:45;;;;;;;10.05;7.30;;;;;;;11.99;70.69;99688.47;5034710;28;20075;-65
2023/04/24 02:46:10;;;;;;;9.80;6.90;;;;;;;12.01;71.38;99685.66;5033243;28;20040;-68
2023/04/24 02:48:36;;;;;;;9.65;7.03;;;;;;;11.93;70.58;99686.53;5035038;28;20213;-65
2023/04/24 02:51:01;;;;;;;12.13;6.95;;;;;;;11.91;70.92;99687.69;5031844;28;20025;-65
2023/04/24 02:53:27;;;;;;;9.52;6.90;;;;;;;11.87;71.93;99681.06;5034865;28;20048;-68
2023/04/24 02:55:52;;;;;;;9.60;7.20;;;;;;;11.90;71.17;99684.22;5031365;28;20100;-64
2023/04/24 02:58:19;;;;;;;9.38;6.57;;;;;;;11.91;71.00;99683.22;5033971;28;20084;-68
2023/04/24 03:00:46;;;;;;;8.68;6.22;;;;;;;11.90;71.56;99676.25;5035083;28;20112;-67
2023/04/24 03:03:11;;;;;;;10.15;7.05;;;;;;;11.57;72.87;99686.09;5033081;28;20104;-64
2023/04/24 03:05:37;;;;;;;12.20;7.30;;;;;;;11.54;72.16;99682.97;5034178;28;20216;-64
2023/04/24 03:08:02;;;;;;;13.05;7.70;;;;;;;11.55;73.43;99688.09;5033627;28;20409;-68
2023/04/24 03:10:28;;;;;;;9.07;6.07;;;;;;;11.45;72.87;99677.69;5033576;28;20068;-65
2023/04/24 03:12:54;;;;;;;11.75;7.50;;;;;;;11.60;72.54;99690.25;5031503;28;20362;-68
2023/04/24 03:15:20;;;;;;;9.30;7.32;;;;;;;11.68;72.93;99691.06;5030986;28;20056;-68
2023/04/24 03:17:45;;;;;;;10.00;7.40;;;;;;;11.69;72.44;99687.41;5032249;28;20049;-66
2023/04/24 03:20:11;;;;;;;10.70;7.32;;;;;;;11.70;72.99;99685.56;5030790;28;20032;-67
2023/04/24 03:22:36;;;;;;;12.23;7.30;;;;;;;11.75;72.87;99683.25;5034004;28;20025;-67
2023/04/24 03:25:03;;;;;;;9.93;6.95;;;;;;;11.79;72.28;99684.59;5030326;28;20025;-65
2023/04/24 03:27:29;;;;;;;13.50;8.20;;;;;;;11.76;72.68;99692.84;5033523;28;20461;-68
2023/04/24 03:29:55;;;;;;;13.98;7.95;;;;;;;11.69;73.37;99692.72;5031619;28;20041;-68
2023/04/24 03:32:24;;;;;;;16.80;8.85;;;;;;;11.63;73.65;99693.38;5033457;28;20055;-64
2023/04/24 03:34:50;;;;;;;17.25;10.13;;;;;;;11.58;73.99;99708.16;5032103;28;20075;-66
2023/04/24 03:37:18;;;;;;;18.63;13.05;;;;;;;11.60;74.20;99707.00;5032753;28;20041;-66
2023/04/24 03:39:44;;;;;;;20.17;13.70;;;;;;;11.58;74.21;99708.16;5033808;28;20041;-65
2023/04/24 03:42:09;;;;;;;19.13;13.48;;;;;;;11.56;74.95;99724.22;5032828;28;20380;-67
2023/04/24 03:44:35;;;;;;;21.17;12.52;;;;;;;11.54;74.86;99720.09;5033806;28;20347;-68
2023/04/24 03:47:01;;;;;;;16.92;12.23;;;;;;;11.47;75.27;99719.94;5032285;28;20065;-68
2023/04/24 03:49:27;;;;;;;18.92;11.15;;;;;;;11.51;75.71;99715.97;5033324;28;20072;-68
2023/04/24 03:51:52;;;;;;;17.80;10.70;;;;;;;11.60;74.87;99714.13;5032357;28;20040;-64
2023/04/24 03:54:18;;;;;;;14.88;9.52;;;;;;;11.71;75.25;99721.72;5030954;28;20045;-68
2023/04/24 03:56:44;;;;;;;15.60;10.27;;;;;;;11.83;73.86;99704.47;5031153;28;20037;-68
2023/04/24 03:59:09;;;;;;;18.30;10.43;;;;;;;11.90;73.56;99701.97;5030803;28;20345;-65
2023/04/24 04:01:37;;;;;;;16.08;10.07;;;;;;;11.96;73.53;99707.41;5029916;28;20072;-64
2023/04/24 04:04:03;;;;;;;24.83;13.45;;;;;;;11.86;73.47;99716.56;5031648;28;20036;-65
2023/04/24 04:06:30;;;;;;;15.52;9.88;;;;;;;11.98;73.37;99720.50;5030769;28;20083;-68
2023/04/24 04:08:56;;;;;;;14.40;9.05;;;;;;;12.08;73.12;99711.34;5032090;28;20033;-68
2023/04/24 04:11:22;;;;;;;14.98;8.65;;;;;;;12.18;73.49;99718.25;5031708;28;20339;-68
2023/04/24 04:13:48;;;;;;;10.68;7.68;;;;;;;12.04;73.65;99718.00;5030489;28;20037;-65
2023/04/24 04:16:14;;;;;;;10.70;7.63;;;;;;;12.11;73.61;99718.13;5031383;28;20040;-65
2023/04/24 04:18:39;;;;;;;10.63;7.80;;;;;;;11.82;74.98;99724.88;5031082;28;20041;-68
2023/04/24 04:21:05;;;;;;;10.85;7.60;;;;;;;11.50;76.71;99736.34;5031596;28;20025;-68
2023/04/24 04:23:31;;;;;;;12.70;7.75;;;;;;;11.25;78.19;99712.66;5029867;28;20049;-68
2023/04/24 04:25:57;;;;;;;16.38;11.65;;;;;;;11.26;79.60;99732.84;5032421;28;20025;-65
2023/04/24 04:28:24;;;;;;;28.48;18.08;;;;;;;11.07;81.11;99734.03;5031846;28;20041;-65
2023/04/24 04:30:53;;;;;;;20.23;15.48;;;;;;;11.07;81.28;99731.38;5032166;28;20068;-65
2023/04/24 04:33:19;;;;;;;21.30;16.08;;;;;;;10.97;83.08;99730.72;5031556;28;20261;-65
2023/04/24 04:35:48;;;;;;;21.17;13.93;;;;;;;11.16;82.92;99730.38;5031655;28;20145;-64
2023/04/24 04:38:14;;;;;;;16.55;11.88;;;;;;;11.42;81.85;99727.53;5032403;28;20357;-65
2023/04/24 04:40:40;;;;;;;15.50;11.85;;;;;;;11.44;80.81;99726.41;5030609;28;20100;-68
2023/04/24 04:43:06;;;;;;;16.10;11.60;;;;;;;11.35;82.12;99734.50;5031940;28;20083;-65
2023/04/24 04:45:32;;;;;;;14.82;10.40;;;;;;;11.56;81.03;99734.00;5030077;28;20025;-68
2023/04/24 04:48:00;;;;;;;14.10;9.90;;;;;;;11.75;80.96;99734.47;5029319;28;20053;-68
2023/04/24 04:50:26;;;;;;;9.45;7.80;;;;;;;11.94;80.38;99733.28;5031067;28;20025;-68
2023/04/24 04:52:52;;;;;;;10.85;7.55;;;;;;;12.05;80.21;99735.56;5032344;28;20029;-64
2023/04/24 04:55:18;;;;;;;11.60;6.95;;;;;;;12.09;80.07;99736.88;5030517;28;20037;-68
2023/04/24 04:57:43;;;;;;;11.70;7.65;;;;;;;12.12;79.71;99731.22;5031136;28;20380;-64
2023/04/24 05:00:10;;;;;;;9.88;6.88;;;;;;;12.09;80.09;99738.69;5031802;28;20362;-65
2023/04/24 05:02:36;;;;;;;14.38;7.30;;;;;;;12.04;80.38;99743.69;5029297;28;20064;-65
2023/04/24 05:05:01;;;;;;;9.85;6.90;;;;;;;12.06;81.24;99739.88;5030238;28;20048;-65
2023/04/24 05:07:26;;;;;;;13.82;7.45;;;;;;;12.50;79.78;99728.75;5028488;28;20032;-65
2023/04/24 05:09:52;;;;;;;14.07;6.88;;;;;;;12.72;77.95;99717.31;5029123;28;20033;-65
2023/04/24 05:12:17;;;;;;;9.88;7.10;;;;;;;12.77;78.59;99719.44;5028928;28;20035;-68
2023/04/24 05:14:43;;;;;;;8.95;6.78;;;;;;;12.70;78.17;99721.97;5031211;28;20369;-68
2023/04/24 05:17:08;;;;;;;9.02;6.63;;;;;;;12.61;79.99;99724.88;5027106;28;20049;-65
2023/04/24 05:19:35;;;;;;;11.48;7.55;;;;;;;12.49;82.55;99724.44;5031136;28;20056;-68
2023/04/24 05:22:03;;;;;;;9.52;7.55;;;;;;;12.52;82.70;99718.78;5029809;28;20270;-68
2023/04/24 05:24:28;;;;;;;10.82;7.13;;;;;;;12.70;83.65;99714.00;5030701;28;20037;-66
2023/04/24 05:26:55;;;;;;;12.23;7.78;;;;;;;12.95;83.59;99717.31;5030021;28;20067;-65
2023/04/24 05:29:21;;;;;;;15.23;9.15;;;;;;;13.10;82.68;99720.03;5029713;28;20030;-68
2023/04/24 05:31:46;;;;;;;10.05;6.97;;;;;;;12.89;77.12;99714.53;5030051;28;20033;-65
2023/04/24 05:34:12;;;;;;;9.93;6.68;;;;;;;12.69;78.91;99715.00;5029593;28;20239;-68
2023/04/24 05:36:37;;;;;;;10.60;7.07;;;;;;;12.57;80.85;99712.94;5029463;28;20046;-65
2023/04/24 05:39:04;;;;;;;10.00;6.65;;;;;;;12.67;81.97;99706.41;5029937;28;20259;-68
2023/04/24 05:41:30;;;;;;;10.50;6.78;;;;;;;12.69;81.92;99709.69;5028308;28;20296;-63
2023/04/24 05:43:55;;;;;;;9.77;6.60;;;;;;;12.74;80.62;99707.34;5031735;28;20029;-65
2023/04/24 05:46:21;;;;;;;12.65;6.90;;;;;;;12.91;80.45;99701.91;5035581;28;20033;-68
2023/04/24 05:48:46;;;;;;;10.23;6.28;;;;;;;12.98;80.36;99706.31;5035217;28;20048;-64
2023/04/24 05:51:12;;;;;;;10.07;6.60;;;;;;;12.90;81.85;99710.88;5035673;28;20219;-64
2023/04/24 05:53:37;;;;;;;7.60;5.57;;;;;;;12.90;78.56;99695.75;5035780;28;20045;-65
2023/04/24 05:56:03;;;;;;;9.27;6.40;;;;;;;12.81;83.64;99703.97;5035463;28;20037;-68
2023/04/24 05:58:28;;;;;;;9.80;7.10;;;;;;;12.81;81.02;99696.00;5035542;28;20109;-69
2023/04/24 06:00:54;;;;;;;10.15;6.55;;;;;;;12.70;77.36;99694.59;5035160;28;20622;-69
2023/04/24 06:03:20;;;;;;;10.52;6.40;;;;;;;12.36;79.01;99705.56;5036117;28;20033;-66
2023/04/24 06:05:45;;;;;;;8.80;5.68;;;;;;;12.39;80.18;99702.56;5048805;28;20063;-68
2023/04/24 06:08:11;;;;;;;11.93;6.65;;;;;;;12.56;76.85;99690.88;5036036;28;20082;-69
2023/04/24 06:10:36;;;;;;;7.72;6.63;;;;;;;12.89;81.00;99698.59;5034791;28;20176;-67
2023/04/24 06:13:02;;;;;;;9.05;6.55;;;;;;;12.92;79.85;99700.91;5035001;28;20042;-66
2023/04/24 06:15:30;;;;;;;8.45;5.95;;;;;;;12.99;77.40;99707.97;5035008;28;20049;-64
2023/04/24 06:17:56;;;;;;;8.23;6.32;;;;;;;13.37;77.23;99706.19;5035724;28;20057;-66
2023/04/24 06:20:22;;;;;;;11.07;6.35;;;;;;;13.66;75.27;99699.28;5035515;28;20036;-67
2023/04/24 06:22:47;;;;;;;11.23;6.53;;;;;;;13.58;74.77;99710.00;5036233;28;20033;-64
2023/04/24 06:25:12;;;;;;;9.57;6.00;;;;;;;13.60;74.13;99713.31;5036162;28;20040;-67
2023/04/24 06:27:38;;;;;;;9.25;6.78;;;;;;;13.86;73.61;99710.19;5036316;28;20067;-65
2023/04/24 06:30:04;;;;;;;9.10;6.18;;;;;;;13.60;73.38;99714.13;5036946;28;20047;-66
2023/04/24 06:32:30;;;;;;;9.82;6.93;;;;;;;13.80;72.89;99706.44;5039295;28;20021;-65
2023/04/24 06:34:56;;;;;;;10.52;7.97;;;;;;;13.99;75.13;99702.38;5038443;28;20279;-65
2023/04/24 06:37:21;;;;;;;9.13;5.70;;;;;;;14.00;72.00;99707.53;5033813;28;20706;-68
2023/04/24 06:39:47;;;;;;;12.93;7.25;;;;;;;13.91;74.31;99697.97;5031953;28;20099;-65
2023/04/24 06:42:12;;;;;;;12.38;6.88;;;;;;;14.01;74.43;99695.03;5032163;28;20029;-68
2023/04/24 06:44:40;;;;;;;9.63;6.80;;;;;;;14.02;74.25;99708.16;5031598;28;20077;-67
2023/04/24 06:47:09;;;;;;;9.00;5.97;;;;;;;13.92;75.50;99702.28;5032968;28;20036;-68
2023/04/24 06:49:36;;;;;;;8.43;6.40;;;;;;;14.15;74.64;99709.34;5031586;28;20087;-68
2023/04/24 06:52:02;;;;;;;13.05;7.40;;;;;;;14.34;72.01;99704.25;5033414;28;20374;-68
2023/04/24 06:54:28;;;;;;;10.23;7.13;;;;;;;14.62;73.11;99714.25;5031868;28;20069;-68
2023/04/24 06:56:55;;;;;;;9.85;6.43;;;;;;;14.76;70.42;99716.03;5029643;28;20355;-65
2023/04/24 06:59:20;;;;;;;10.07;7.00;;;;;;;14.75;69.96;99710.91;5033315;28;20236;-66
2023/04/24 07:01:46;;;;;;;9.45;7.38;;;;;;;14.74;70.64;99711.91;5032311;28;20044;-64
2023/04/24 07:04:12;;;;;;;11.63;7.15;;;;;;;14.96;68.69;99719.72;5032351;28;20251;-67
2023/04/24 07:06:38;;;;;;;10.00;6.53;;;;;;;15.16;68.71;99709.22;5033846;28;20037;-64
2023/04/24 07:09:04;;;;;;;9.30;6.50;;;;;;;15.11;68.22;99710.84;5035201;28;20076;-66
2023/04/24 07:11:30;;;;;;;10.35;6.68;;;;;;;15.15;66.39;99709.44;5031574;28;20235;-64
2023/04/24 07:13:55;;;;;;;11.80;7.10;;;;;;;15.39;67.42;99714.34;5033741;28;20259;-67
2023/04/24 07:16:21;;;;;;;9.48;6.20;;;;;;;15.38;66.20;99712.69;5032045;28;20405;-65
2023/04/24 07:18:47;;;;;;;8.30;6.80;;;;;;;15.52;68.88;99705.59;5033689;28;20034;-64
2023/04/24 07:21:12;;;;;;;8.50;6.22;;;;;;;15.85;65.26;99708.53;5032005;28;20029;-63
2023/04/24 07:23:37;;;;;;;10.45;6.57;;;;;;;15.56;68.19;99712.22;5033977;28;20068;-67
2023/04/24 07:26:03;;;;;;;10.73;7.40;;;;;;;15.09;67.91;99708.34;5031594;28;20045;-66
2023/04/24 07:28:31;;;;;;;11.32;7.53;;;;;;;15.17;68.27;99718.06;5031256;28;20045;-65
2023/04/24 07:30:57;;;;;;;8.02;6.13;;;;;;;15.47;67.14;99708.03;5033011;28;20040;-64
2023/04/24 07:33:22;;;;;;;9.30;6.47;;;;;;;15.63;66.18;99705.13;5031667;28;20045;-67
2023/04/24 07:35:48;;;;;;;11.30;6.97;;;;;;;15.83;67.29;99707.91;5033020;28;20037;-65
2023/04/24 07:38:14;;;;;;;7.93;6.57;;;;;;;16.01;66.14;99710.88;5031197;28;20029;-64
2023/04/24 07:40:39;;;;;;;11.00;6.45;;;;;;;15.98;66.80;99705.13;5031266;28;20057;-67
2023/04/24 07:43:05;;;;;;;9.77;5.93;;;;;;;15.98;66.06;99697.94;5031084;28;20029;-64
2023/04/24 07:45:31;;;;;;;8.93;5.60;;;;;;;16.20;63.40;99704.81;5030918;28;20107;-68
2023/04/24 07:47:56;;;;;;;7.78;6.43;;;;;;;16.22;64.69;99697.44;5031234;28;20116;-67
2023/04/24 07:50:22;;;;;;;10.82;7.18;;;;;;;16.14;67.85;99707.47;5032359;28;20041;-65
2023/04/24 07:52:48;;;;;;;10.60;6.95;;;;;;;16.32;65.34;99701.56;5032286;28;20340;-69
2023/04/24 07:55:13;;;;;;;10.95;6.80;;;;;;;16.76;65.57;99701.97;5031819;28;20037;-65
2023/04/24 07:57:38;;;;;;;9.77;6.60;;;;;;;16.84;63.50;99703.63;5031924;28;20026;-68
2023/04/24 08:00:05;;;;;;;10.63;7.05;;;;;;;16.80;63.37;99694.34;5031739;28;20036;-62
2023/04/24 08:02:31;;;;;;;12.27;6.50;;;;;;;16.47;62.71;99688.88;5032857;28;20104;-68
2023/04/24 08:04:56;;;;;;;10.00;6.55;;;;;;;16.57;65.76;99691.97;5030617;28;20069;-68
2023/04/24 08:07:23;;;;;;;9.85;6.65;;;;;;;16.61;62.19;99696.72;5031841;28;20030;-69
2023/04/24 08:09:49;;;;;;;8.63;5.80;;;;;;;16.77;62.11;99695.59;5030291;28;20076;-65
2023/04/24 08:12:14;;;;;;;7.40;5.93;;;;;;;16.61;61.82;99690.56;5031842;28;20034;-68
2023/04/24 08:14:40;;;;;;;7.80;6.22;;;;;;;16.28;62.23;99688.59;5032049;28;20133;-65
2023/04/24 08:17:05;;;;;;;10.07;7.00;;;;;;;16.68;64.09;99690.63;5033043;28;20251;-68
2023/04/24 08:19:30;;;;;;;8.45;5.88;;;;;;;16.75;60.67;99678.09;5031045;28;20307;-65
2023/04/24 08:21:56;;;;;;;8.68;6.05;;;;;;;17.24;60.75;99689.22;5032211;28;20398;-68
2023/04/24 08:24:22;;;;;;;8.07;7.10;;;;;;;17.53;60.07;99681.78;5029047;28;20037;-65
2023/04/24 08:26:50;;;;;;;7.78;6.07;;;;;;;17.54;58.27;99684.25;5031128;28;20090;-69
2023/04/24 08:29:15;;;;;;;9.60;5.75;;;;;;;17.48;59.94;99669.03;5031504;28;20314;-65
2023/04/24 08:31:41;;;;;;;8.18;6.03;;;;;;;17.30;61.24;99682.22;5029601;28;20045;-63
2023/04/24 08:34:06;;;;;;;9.57;5.97;;;;;;;17.20;62.89;99663.09;5032337;28;20052;-63
2023/04/24 08:36:32;;;;;;;11.32;6.45;;;;;;;17.54;60.63;99668.19;5031282;28;20063;-68
2023/04/24 08:38:57;;;;;;;14.50;6.60;;;;;;;17.40;59.92;99660.41;5029997;28;20083;-65
2023/04/24 08:41:25;;;;;;;7.68;6.63;;;;;;;17.16;60.85;99654.66;5030955;28;20060;-65
2023/04/24 08:43:51;;;;;;;8.35;6.20;;;;;;;17.09;66.85;99653.00;5030859;28;20079;-65
2023/04/24 08:46:19;;;;;;;9.52;6.95;;;;;;;17.28;64.74;99652.19;5031529;28;20057;-68
2023/04/24 08:48:45;;;;;;;9.88;6.60;;;;;;;17.34;61.81;99653.19;5029059;28;20037;-68
2023/04/24 08:51:11;;;;;;;10.70;6.95;;;;;;;17.22;62.21;99645.81;5030332;28;20036;-66
2023/04/24 08:53:36;;;;;;;9.68;6.05;;;;;;;17.33;64.87;99643.53;5030982;28;20048;-66
2023/04/24 08:56:03;;;;;;;6.90;5.72;;;;;;;17.53;62.51;99642.47;5029886;28;20251;-66
2023/04/24 08:58:29;;;;;;;9.90;6.30;;;;;;;17.49;61.18;99640.41;5031403;28;20389;-65
2023/04/24 09:00:55;;;;;;;9.60;6.00;;;;;;;17.65;62.22;99636.47;5030092;28;20045;-64
2023/04/24 09:03:21;;;;;;;11.30;6.50;;;;;;;17.76;59.19;99634.00;5029546;28;20030;-65
2023/04/24 09:05:49;;;;;;;10.07;6.47;;;;;;;17.84;58.35;99627.59;5030724;28;20155;-66
2023/04/24 09:08:17;;;;;;;9.75;5.60;;;;;;;17.63;60.04;99625.97;5031490;28;20267;-68
2023/04/24 09:10:43;;;;;;;6.25;5.35;;;;;;;17.65;60.81;99617.72;5031804;28;20041;-65
2023/04/24 09:13:09;;;;;;;7.40;5.97;;;;;;;17.53;59.81;99630.94;5029670;28;20048;-68
2023/04/24 09:15:35;;;;;;;10.30;5.82;;;;;;;17.64;59.45;99627.59;5032056;28;20067;-65
2023/04/24 09:18:01;;;;;;;7.60;5.40;;;;;;;17.54;59.61;99620.00;5030183;28;20068;-67
2023/04/24 09:20:27;;;;;;;8.95;6.05;;;;;;;17.48;59.16;99620.03;5031757;28;20322;-66
2023/04/24 09:22:57;;;;;;;6.18;5.35;;;;;;;17.52;60.34;99626.59;5030619;28;20046;-66
2023/04/24 09:25:22;;;;;;;7.28;5.13;;;;;;;17.49;60.56;99616.31;5029252;28;20033;-63
2023/04/24 09:27:48;;;;;;;8.68;6.35;;;;;;;17.56;61.16;99612.59;5031334;28;20041;-63
2023/04/24 09:30:20;;;;;;;9.40;5.80;;;;;;;17.56;60.80;99612.59;5029967;28;20071;-64
2023/04/24 09:32:46;;;;;;;8.02;5.55;;;;;;;17.72;59.05;99615.91;5032093;28;20239;-66
2023/04/24 09:35:13;;;;;;;8.75;5.22;;;;;;;17.82;59.14;99602.88;5030567;28;20040;-66
2023/04/24 09:37:41;;;;;;;9.38;6.00;;;;;;;17.89;59.06;99606.34;5029540;28;20112;-66
2023/04/24 09:40:22;;;;;;;10.07;5.90;;;;;;;17.93;60.07;99604.06;5031459;28;20096;-68
2023/04/24 09:42:56;;;;;;;8.60;5.82;;;;;;;17.94;59.13;99598.50;5030208;28;20267;-68
2023/04/24 09:45:22;;;;;;;;;;;;;;;17.88;58.91;99598.53;5030329;28;20067;-68
2023/04/24 09:47:53;;;;;;;9.73;5.70;;;;;;;17.80;60.23;99591.56;5032694;28;19929;-68
2023/04/24 09:50:19;;;;;;;7.78;5.75;;;;;;;17.95;58.99;99586.75;5029523;28;20192;-69
2023/04/24 09:52:47;;;;;;;6.05;5.05;;;;;;;17.99;57.64;99577.25;5030074;28;20049;-69
2023/04/24 09:55:20;;;;;;;7.85;5.40;;;;;;;17.78;61.08;99580.25;5031933;28;20029;-69
2023/04/24 09:57:49;;;;;;;8.73;5.05;;;;;;;17.67;60.41;99576.34;5030887;28;20255;-69
2023/04/24 10:00:18;;;;;;;8.10;4.93;;;;;;;17.79;58.12;99563.13;5030870;28;20044;-69
2023/04/24 10:02:44;;;;;;;7.00;5.78;;;;;;;17.87;58.33;99565.56;5032010;28;20340;-69
2023/04/24 10:05:11;;;;;;;7.63;5.72;;;;;;;17.80;62.48;99552.22;5032235;28;20084;-69
2023/04/24 10:07:37;;;;;;;6.88;5.25;;;;;;;17.71;59.45;99550.81;5031560;28;20030;-69
2023/04/24 10:10:03;;;;;;;5.88;4.85;;;;;;;17.86;58.84;99548.69;5034517;28;20025;-69
2023/04/24 10:12:30;;;;;;;8.07;5.28;;;;;;;17.87;57.71;99565.56;5033776;28;20037;-69
2023/04/24 10:14:57;;;;;;;8.20;5.38;;;;;;;17.93;57.52;99564.72;5033777;28;20044;-68
2023/04/24 10:17:24;;;;;;;7.97;5.85;;;;;;;17.96;59.35;99558.94;5032606;28;20366;-68
2023/04/24 10:19:51;;;;;;;7.75;5.45;;;;;;;17.98;59.23;99558.72;5035746;28;20034;-68
2023/04/24 10:22:17;;;;;;;8.73;6.05;;;;;;;18.12;58.09;99553.06;5034317;28;20045;-68
2023/04/24 10:24:45;;;;;;;7.72;5.47;;;;;;;18.36;59.08;99543.41;5035234;28;20043;-68
2023/04/24 10:27:12;;;;;;;9.20;5.72;;;;;;;18.69;59.53;99553.09;5033650;28;20047;-68
2023/04/24 10:29:40;;;;;;;7.53;5.57;;;;;;;18.67;55.72;99547.94;5035147;28;20095;-68
2023/04/24 10:32:07;;;;;;;6.82;4.72;;;;;;;18.59;55.29;99545.50;5034150;28;20653;-68
2023/04/24 10:34:32;;;;;;;7.00;5.65;;;;;;;18.52;56.21;99534.84;5033497;28;20358;-68
2023/04/24 10:36:58;;;;;;;7.10;5.63;;;;;;;18.62;56.57;99530.88;5033653;28;20041;-68
2023/04/24 10:39:24;;;;;;;7.68;4.90;;;;;;;18.77;56.52;99529.53;5030078;28;20056;-68
2023/04/24 10:41:49;;;;;;;8.07;5.80;;;;;;;18.70;55.41;99525.22;5031810;28;20363;-68
2023/04/24 10:44:15;;;;;;;7.85;5.40;;;;;;;18.56;55.56;99532.53;5028201;28;20325;-65
2023/04/24 10:46:49;;;;;;;7.40;5.50;;;;;;;18.40;56.28;99525.88;5033178;28;20108;-66
2023/04/24 10:49:14;;;;;;;6.22;5.45;;;;;;;18.39;58.14;99532.25;5033417;28;20380;-68
2023/04/24 10:51:53;;;;;;;6.13;5.30;;;;;;;18.49;56.32;99524.56;5032973;28;20046;-68
2023/04/24 10:54:35;;;;;;;7.43;5.40;;;;;;;18.41;57.39;99519.47;5027046;28;20219;-67
2023/04/24 10:57:22;;;;;;;6.35;5.47;;;;;;;18.36;56.76;99513.94;5033568;28;20254;-68
2023/04/24 10:59:49;;;;;;;6.82;5.60;;;;;;;18.56;59.20;99507.59;5033697;28;20105;-67
2023/04/24 11:02:15;;;;;;;7.03;5.68;;;;;;;18.67;57.35;99490.81;5032743;28;20041;-65
2023/04/24 11:04:44;;;;;;;6.90;5.47;;;;;;;18.62;57.26;99486.09;5034217;28;20029;-68
2023/04/24 11:07:10;;;;;;;6.28;5.25;;;;;;;18.79;59.24;99483.72;5032147;28;20136;-65
2023/04/24 11:09:36;;;;;;;8.52;5.72;;;;;;;18.78;60.50;99490.13;5032374;28;20275;-66
2023/04/24 11:12:13;;;;;;;6.07;5.30;;;;;;;18.71;61.17;99481.28;5031963;28;20400;-65
2023/04/24 11:14:57;;;;;;;6.13;5.47;;;;;;;18.82;62.77;99477.91;5031844;28;20042;-67
2023/04/24 11:17:37;;;;;;;;;;;;;;;18.86;56.88;99484.47;5031771;28;20420;-68
2023/04/24 11:20:10;;;;;;;5.88;5.38;;;;;;;18.70;58.14;99469.72;5034266;28;19932;-65
2023/04/24 11:22:37;;;;;;;7.47;5.20;;;;;;;18.70;56.59;99460.88;5034394;28;20037;-67
2023/04/24 11:25:04;;;;;;;7.35;5.40;;;;;;;18.76;56.39;99468.06;5031691;28;20044;-68